Time;durP1;ratioP1;P1;durP2;ratioP2;P2;SDS_P1;SDS_P2;PMS_P1;PMS_P2;Temp;Humidity;BMP_temperature;BMP_pressure;BME280_temperature;BME280_humidity;BME280_pressure;Samples;Min_cycle;Max_cycle;Signal;HPM_P1;HPM_P2
2023/06/02 00:00:39;;;;;;;6.00;4.10;;;;;;;19.35;62.44;97972.16;4197882;28;20639;-80
2023/06/02 00:02:43;;;;;;;6.43;3.97;;;;;;;19.21;63.09;97975.44;4182832;28;21057;-80
2023/06/02 00:04:49;;;;;;;5.97;3.90;;;;;;;19.11;62.81;97969.44;4203557;28;20678;-81
2023/06/02 00:06:53;;;;;;;7.00;3.90;;;;;;;19.07;63.06;97978.69;4198785;28;20768;-81
2023/06/02 00:08:57;;;;;;;6.63;3.90;;;;;;;18.95;64.28;97969.34;4199887;28;20688;-80
2023/06/02 00:11:01;;;;;;;5.50;3.73;;;;;;;18.90;63.87;97975.13;4195974;28;20639;-81
2023/06/02 00:13:04;;;;;;;6.10;4.17;;;;;;;18.84;64.41;97967.00;4199190;28;20742;-80
2023/06/02 00:15:08;;;;;;;5.97;3.93;;;;;;;18.82;64.60;97978.72;4196604;28;20666;-80
2023/06/02 00:17:12;;;;;;;4.57;3.50;;;;;;;18.75;65.01;97973.22;4198573;28;21034;-81
2023/06/02 00:19:18;;;;;;;6.40;3.80;;;;;;;18.70;64.48;97978.16;4184671;28;20625;-81
2023/06/02 00:21:23;;;;;;;6.43;3.70;;;;;;;18.60;64.50;97980.09;4184003;28;20690;-81
2023/06/02 00:23:28;;;;;;;5.50;4.10;;;;;;;18.57;64.65;97982.22;4196921;28;20684;-81
2023/06/02 00:25:33;;;;;;;3.83;3.20;;;;;;;18.49;65.39;97977.72;4188795;28;20628;-81
2023/06/02 00:27:37;;;;;;;6.50;4.40;;;;;;;18.47;65.27;97974.38;4200542;28;20678;-81
2023/06/02 00:29:40;;;;;;;5.40;3.87;;;;;;;18.44;65.88;97990.53;4189856;28;20648;-80
2023/06/02 00:31:43;;;;;;;7.27;3.73;;;;;;;18.35;66.61;97987.19;4183028;28;20688;-80
2023/06/02 00:33:47;;;;;;;6.00;4.10;;;;;;;18.27;66.30;97992.44;4203295;28;20982;-80
2023/06/02 00:35:50;;;;;;;6.13;3.90;;;;;;;18.18;66.74;97980.97;4201067;28;20643;-80
2023/06/02 00:37:55;;;;;;;5.23;4.00;;;;;;;18.15;67.11;97999.75;4200989;28;20627;-81
2023/06/02 00:39:58;;;;;;;8.20;4.17;;;;;;;18.11;67.75;97994.91;4204107;28;20656;-81
2023/06/02 00:42:02;;;;;;;5.30;4.03;;;;;;;18.07;67.46;97996.16;4196210;28;20675;-81
2023/06/02 00:44:05;;;;;;;6.77;4.17;;;;;;;18.03;67.91;98002.75;4197696;28;20627;-81
2023/06/02 00:46:08;;;;;;;9.83;4.20;;;;;;;18.03;67.34;98006.22;4202055;28;20634;-80
2023/06/02 00:48:11;;;;;;;6.60;4.50;;;;;;;18.03;66.81;98000.13;4202353;28;20658;-80
2023/06/02 00:50:15;;;;;;;7.50;4.30;;;;;;;18.01;67.08;98002.91;4196297;28;20627;-80
2023/06/02 00:52:19;;;;;;;7.23;4.20;;;;;;;18.01;67.41;98007.34;4203615;28;20733;-80
2023/06/02 00:54:24;;;;;;;5.80;3.90;;;;;;;17.98;68.28;98007.66;4201554;28;20724;-80
2023/06/02 00:56:27;;;;;;;7.20;4.70;;;;;;;17.91;68.33;98003.16;4185984;28;20629;-80
2023/06/02 00:58:37;;;;;;;5.93;4.47;;;;;;;17.86;68.20;98000.97;4200339;28;20623;-81
2023/06/02 01:00:40;;;;;;;6.40;3.80;;;;;;;17.79;67.57;98005.19;4194104;28;20639;-80
2023/06/02 01:02:45;;;;;;;5.70;4.20;;;;;;;17.76;67.99;98002.84;4202582;28;20637;-80
2023/06/02 01:04:50;;;;;;;5.80;4.33;;;;;;;17.65;69.28;97995.16;4189670;28;21208;-81
2023/06/02 01:06:54;;;;;;;7.00;4.57;;;;;;;17.53;69.49;97995.53;4197765;28;20655;-80
2023/06/02 01:08:57;;;;;;;5.80;4.20;;;;;;;17.44;69.67;97990.31;4187104;28;20632;-81
2023/06/02 01:11:02;;;;;;;6.17;4.20;;;;;;;17.39;70.34;97997.84;4194298;28;20662;-80
2023/06/02 01:13:05;;;;;;;6.00;4.40;;;;;;;17.37;69.13;97997.19;4201701;28;20630;-80
2023/06/02 01:15:09;;;;;;;7.43;4.60;;;;;;;17.36;70.77;97992.88;4184024;28;20711;-81
2023/06/02 01:17:13;;;;;;;7.20;4.60;;;;;;;17.32;69.10;97999.41;4196991;28;20986;-80
2023/06/02 01:19:21;;;;;;;5.40;4.00;;;;;;;17.22;71.71;97998.66;4193915;28;20645;-80
2023/06/02 01:21:28;;;;;;;5.50;4.37;;;;;;;17.16;69.68;97997.38;4192357;28;20629;-80
2023/06/02 01:23:33;;;;;;;7.20;5.03;;;;;;;17.10;71.07;97997.16;4191048;28;21260;-80
2023/06/02 01:25:39;;;;;;;6.30;4.80;;;;;;;17.07;72.06;97997.44;4174121;28;21200;-80
2023/06/02 01:27:42;;;;;;;5.73;4.63;;;;;;;17.04;71.86;97992.47;4191943;28;20655;-81
2023/06/02 01:29:46;;;;;;;6.13;4.47;;;;;;;17.05;71.84;97996.78;4193275;28;20749;-81
2023/06/02 01:31:53;;;;;;;5.87;4.40;;;;;;;17.05;70.80;98002.03;4193416;28;20752;-81
2023/06/02 01:34:01;;;;;;;6.13;4.20;;;;;;;17.00;72.96;97996.38;4185784;28;21270;-81
2023/06/02 01:36:04;;;;;;;7.80;5.10;;;;;;;16.97;72.62;98001.94;4177249;28;21151;-80
2023/06/02 01:38:08;;;;;;;7.87;4.70;;;;;;;16.90;73.43;97990.34;4180294;28;21512;-81
2023/06/02 01:40:12;;;;;;;6.30;4.63;;;;;;;16.86;72.57;97993.41;4183835;28;21067;-80
2023/06/02 01:42:17;;;;;;;6.50;4.80;;;;;;;16.80;73.14;97994.78;4198361;28;20693;-80
2023/06/02 01:44:21;;;;;;;6.20;4.33;;;;;;;16.75;71.66;98004.13;4212849;28;20744;-80
2023/06/02 01:46:25;;;;;;;5.93;4.40;;;;;;;16.72;72.52;98004.41;4198553;28;21084;-80
2023/06/02 01:48:29;;;;;;;5.97;4.30;;;;;;;16.71;73.04;98010.66;4205386;28;21051;-80
2023/06/02 01:50:34;;;;;;;6.73;4.30;;;;;;;16.64;72.36;98006.91;4197144;28;20638;-80
2023/06/02 01:52:37;;;;;;;7.70;4.70;;;;;;;16.55;73.64;98006.00;4196533;28;20639;-81
2023/06/02 01:54:40;;;;;;;7.40;4.77;;;;;;;16.46;72.40;98005.19;4183599;28;20625;-80
2023/06/02 01:56:44;;;;;;;6.40;4.67;;;;;;;16.40;73.03;98003.94;4200301;28;20637;-80
2023/06/02 01:58:52;;;;;;;7.57;4.70;;;;;;;16.35;74.95;98003.53;4204235;28;21096;-80
2023/06/02 02:00:57;;;;;;;5.67;4.40;;;;;;;16.34;73.74;97999.28;4183484;28;20630;-80
2023/06/02 02:03:00;;;;;;;6.60;5.33;;;;;;;16.38;73.03;98007.69;4197437;28;21259;-80
2023/06/02 02:05:03;;;;;;;6.00;4.43;;;;;;;16.41;73.84;98004.78;4199422;28;20634;-80
2023/06/02 02:07:08;;;;;;;6.30;4.50;;;;;;;16.43;74.07;98003.66;4204079;28;20668;-80
2023/06/02 02:09:11;;;;;;;8.00;5.50;;;;;;;16.45;73.76;98004.34;4199000;28;20647;-80
2023/06/02 02:11:14;;;;;;;6.60;5.30;;;;;;;16.43;73.18;98000.19;4199278;28;20630;-80
2023/06/02 02:13:17;;;;;;;7.10;4.70;;;;;;;16.44;75.28;98001.88;4199033;28;21243;-80
2023/06/02 02:15:23;;;;;;;6.63;4.73;;;;;;;16.42;74.13;97993.25;4201334;28;20636;-80
2023/06/02 02:17:27;;;;;;;7.23;5.10;;;;;;;16.41;74.28;98000.34;4209845;28;21200;-80
2023/06/02 02:19:31;;;;;;;9.00;5.57;;;;;;;16.42;75.47;97999.38;4207685;28;20730;-80
2023/06/02 02:21:34;;;;;;;7.07;5.20;;;;;;;16.38;74.20;98012.97;4205691;28;20632;-80
2023/06/02 02:23:37;;;;;;;6.30;5.17;;;;;;;16.28;74.27;98007.72;4206838;28;21080;-80
2023/06/02 02:25:40;;;;;;;7.03;4.83;;;;;;;16.24;75.93;98008.16;4187913;28;20633;-80
2023/06/02 02:27:43;;;;;;;7.83;5.40;;;;;;;16.25;73.91;98004.53;4190488;28;21239;-80
2023/06/02 02:29:46;;;;;;;7.60;5.20;;;;;;;16.16;76.44;98007.97;4191374;28;21195;-80
2023/06/02 02:31:51;;;;;;;7.40;4.93;;;;;;;16.05;74.37;98005.50;4206304;28;20666;-80
2023/06/02 02:33:54;;;;;;;6.23;4.57;;;;;;;16.00;76.14;98007.72;4188083;28;20676;-80
2023/06/02 02:35:58;;;;;;;8.17;4.60;;;;;;;15.96;74.60;98016.88;4183683;28;20627;-80
2023/06/02 02:38:01;;;;;;;6.40;4.57;;;;;;;15.92;76.26;98010.25;4184899;28;20634;-80
2023/06/02 02:40:06;;;;;;;7.07;4.77;;;;;;;15.88;76.90;98019.38;4182382;28;20666;-80
2023/06/02 02:42:10;;;;;;;8.73;5.23;;;;;;;15.82;76.11;98012.03;4177397;28;20841;-80
2023/06/02 02:44:13;;;;;;;8.67;5.53;;;;;;;15.78;76.68;98017.72;4204598;28;20633;-80
2023/06/02 02:46:17;;;;;;;5.63;4.30;;;;;;;15.75;76.98;98012.72;4180354;28;20668;-80
2023/06/02 02:48:22;;;;;;;8.50;5.37;;;;;;;15.72;76.88;98019.06;4178547;28;20698;-80
2023/06/02 02:50:25;;;;;;;8.00;5.07;;;;;;;15.70;75.49;98021.03;4204865;28;21265;-81
2023/06/02 02:52:29;;;;;;;6.77;4.60;;;;;;;15.67;76.43;98020.47;4201275;28;20698;-80
2023/06/02 02:54:33;;;;;;;7.80;4.90;;;;;;;15.64;76.54;98021.56;4208332;28;20636;-80
2023/06/02 02:56:40;;;;;;;7.30;5.40;;;;;;;15.62;77.27;98022.66;4203301;28;20665;-80
2023/06/02 02:58:44;;;;;;;8.13;5.37;;;;;;;15.63;77.00;98019.09;4184181;28;20647;-80
2023/06/02 03:00:47;;;;;;;6.93;5.00;;;;;;;15.70;76.12;98028.91;4201307;28;20669;-80
2023/06/02 03:02:52;;;;;;;7.60;5.10;;;;;;;15.69;77.30;98029.88;4204215;28;21067;-80
2023/06/02 03:04:56;;;;;;;6.87;5.03;;;;;;;15.59;76.72;98028.19;4190266;28;20633;-80
2023/06/02 03:07:01;;;;;;;7.97;4.90;;;;;;;15.46;76.59;98022.38;4185101;28;20662;-80
2023/06/02 03:09:05;;;;;;;7.43;4.90;;;;;;;15.34;76.75;98020.03;4199261;28;20690;-80
2023/06/02 03:11:08;;;;;;;10.03;4.93;;;;;;;15.25;77.13;98020.84;4195621;28;20632;-80
2023/06/02 03:13:12;;;;;;;7.17;4.53;;;;;;;15.21;77.92;98027.31;4208200;28;20620;-80
2023/06/02 03:15:16;;;;;;;8.60;5.20;;;;;;;15.17;77.24;98020.69;4203405;28;21774;-80
2023/06/02 03:17:20;;;;;;;7.80;5.03;;;;;;;15.21;78.21;98024.69;4200144;28;20723;-80
2023/06/02 03:19:24;;;;;;;6.67;4.63;;;;;;;15.25;77.97;98021.66;4189266;28;20624;-80
2023/06/02 03:21:31;;;;;;;8.90;5.20;;;;;;;15.31;77.33;98022.91;4204608;28;20723;-80
2023/06/02 03:23:36;;;;;;;10.10;4.90;;;;;;;15.35;77.31;98026.91;4208892;28;20653;-80
2023/06/02 03:25:40;;;;;;;7.03;4.73;;;;;;;15.40;77.64;98033.44;4198190;28;20732;-80
2023/06/02 03:27:43;;;;;;;7.70;4.60;;;;;;;15.45;78.94;98033.03;4192583;28;20695;-80
2023/06/02 03:29:47;;;;;;;6.80;4.93;;;;;;;15.41;77.80;98029.00;4201613;28;20703;-80
2023/06/02 03:31:55;;;;;;;8.30;4.83;;;;;;;15.43;77.30;98040.25;4181042;28;20632;-80
2023/06/02 03:34:02;;;;;;;6.90;4.60;;;;;;;15.47;77.23;98042.47;4205480;28;20634;-80
2023/06/02 03:36:07;;;;;;;6.67;4.80;;;;;;;15.47;78.21;98037.22;4199867;28;20769;-80
2023/06/02 03:38:15;;;;;;;6.73;4.60;;;;;;;15.40;77.08;98040.50;4204777;28;20640;-80
2023/06/02 03:40:18;;;;;;;7.83;5.07;;;;;;;15.29;78.23;98041.44;4189785;28;20636;-80
2023/06/02 03:42:21;;;;;;;11.20;4.80;;;;;;;15.28;78.03;98044.22;4189837;28;21577;-80
2023/06/02 03:44:25;;;;;;;6.00;4.40;;;;;;;15.25;77.73;98045.31;4185134;28;20647;-80
2023/06/02 03:46:28;;;;;;;7.33;4.50;;;;;;;15.17;78.68;98037.25;4184383;28;20724;-80
2023/06/02 03:48:32;;;;;;;7.97;4.63;;;;;;;15.11;78.85;98044.84;4189434;28;20636;-80
2023/06/02 03:50:38;;;;;;;8.20;5.17;;;;;;;15.09;79.09;98039.72;4198343;28;20692;-80
2023/06/02 03:52:41;;;;;;;7.50;4.90;;;;;;;15.12;79.30;98042.06;4188526;28;20672;-80
2023/06/02 03:54:48;;;;;;;7.70;4.77;;;;;;;15.11;78.89;98047.47;4185278;28;20730;-80
2023/06/02 03:56:51;;;;;;;7.00;4.93;;;;;;;15.15;79.79;98044.44;4200446;28;20730;-80
2023/06/02 03:58:54;;;;;;;6.00;4.03;;;;;;;15.21;79.53;98043.06;4191231;28;20635;-80
2023/06/02 04:00:58;;;;;;;7.83;4.70;;;;;;;15.24;79.16;98053.31;4195743;28;20992;-80
2023/06/02 04:03:02;;;;;;;6.97;5.00;;;;;;;15.34;79.47;98051.56;4186682;28;20726;-80
2023/06/02 04:05:06;;;;;;;8.70;5.17;;;;;;;15.43;80.35;98056.00;4201980;28;20627;-80
2023/06/02 04:07:09;;;;;;;9.77;4.67;;;;;;;15.51;80.09;98062.22;4196854;28;20746;-80
2023/06/02 04:09:14;;;;;;;8.53;5.17;;;;;;;15.53;78.42;98064.72;4190217;28;20718;-80
2023/06/02 04:11:22;;;;;;;6.17;4.60;;;;;;;15.47;79.23;98060.00;4200835;28;20671;-80
2023/06/02 04:13:26;;;;;;;7.80;4.57;;;;;;;15.45;79.70;98067.22;4187762;28;20624;-80
2023/06/02 04:15:29;;;;;;;6.43;4.13;;;;;;;15.48;79.97;98070.38;4198685;28;20692;-80
2023/06/02 04:17:32;;;;;;;10.00;5.73;;;;;;;15.49;79.19;98068.63;4203455;28;20667;-80
2023/06/02 04:19:37;;;;;;;7.47;4.77;;;;;;;15.52;80.00;98070.97;4186719;28;20644;-80
2023/06/02 04:21:40;;;;;;;7.13;4.37;;;;;;;15.53;80.26;98070.84;4200944;28;20692;-80
2023/06/02 04:23:44;;;;;;;8.67;4.90;;;;;;;15.55;81.11;98068.91;4184590;28;20634;-80
2023/06/02 04:25:47;;;;;;;7.40;5.20;;;;;;;15.60;79.42;98078.03;4201820;28;20641;-80
2023/06/02 04:27:51;;;;;;;8.27;5.20;;;;;;;15.68;80.59;98086.09;4200637;28;20732;-80
2023/06/02 04:29:54;;;;;;;8.80;5.83;;;;;;;15.74;80.59;98085.53;4197138;28;21320;-80
2023/06/02 04:31:58;;;;;;;7.20;4.97;;;;;;;15.81;80.73;98091.91;4202781;28;21234;-80
2023/06/02 04:34:04;;;;;;;7.03;5.10;;;;;;;15.86;80.97;98097.59;4200929;28;21031;-80
2023/06/02 04:36:10;;;;;;;8.00;5.63;;;;;;;15.91;80.33;98100.66;4196580;28;22205;-80
2023/06/02 04:38:14;;;;;;;9.80;5.60;;;;;;;15.96;78.93;98106.31;4203258;28;20939;-80
2023/06/02 04:40:18;;;;;;;8.03;5.47;;;;;;;16.05;78.73;98094.97;4197592;28;21191;-80
2023/06/02 04:42:22;;;;;;;7.37;5.20;;;;;;;16.12;79.28;98096.09;4186320;28;20639;-80
2023/06/02 04:44:27;;;;;;;7.67;5.03;;;;;;;16.22;79.82;98097.78;4199337;28;20647;-80
2023/06/02 04:46:30;;;;;;;9.17;6.13;;;;;;;16.27;80.17;98106.09;4192732;28;20707;-80
2023/06/02 04:48:38;;;;;;;8.90;5.23;;;;;;;16.30;80.81;98105.81;4194545;28;21280;-82
2023/06/02 04:50:42;;;;;;;8.50;5.10;;;;;;;16.35;81.69;98106.22;4183176;28;20659;-80
2023/06/02 04:52:46;;;;;;;8.93;5.33;;;;;;;16.40;80.71;98105.78;4186713;28;20626;-80
2023/06/02 04:54:50;;;;;;;6.97;4.93;;;;;;;16.44;82.51;98115.09;4195021;28;21217;-81
2023/06/02 04:56:54;;;;;;;8.70;5.47;;;;;;;16.48;80.99;98109.41;4194936;28;20677;-80
2023/06/02 04:58:57;;;;;;;9.30;6.23;;;;;;;16.54;79.85;98109.66;4196664;28;20667;-81
2023/06/02 05:01:02;;;;;;;11.03;5.90;;;;;;;16.60;79.46;98109.09;4198687;28;20635;-82
2023/06/02 05:03:06;;;;;;;10.43;5.80;;;;;;;16.66;80.05;98118.25;4202162;28;20699;-82
2023/06/02 05:05:10;;;;;;;8.83;5.37;;;;;;;16.72;79.24;98123.78;4189544;28;20674;-82
2023/06/02 05:07:13;;;;;;;7.90;5.27;;;;;;;16.79;80.67;98140.66;4196769;28;20666;-81
2023/06/02 05:09:17;;;;;;;8.07;5.73;;;;;;;16.86;78.42;98149.66;4204146;28;20641;-81
2023/06/02 05:11:23;;;;;;;8.77;5.77;;;;;;;16.90;79.53;98143.16;4198113;28;20626;-82
2023/06/02 05:13:27;;;;;;;9.20;5.50;;;;;;;16.96;79.55;98147.00;4184948;28;20623;-81
2023/06/02 05:15:31;;;;;;;5.60;4.23;;;;;;;17.03;78.02;98138.38;4187494;28;21244;-81
2023/06/02 05:17:35;;;;;;;9.23;5.73;;;;;;;17.07;78.53;98134.50;4178576;28;20700;-81
2023/06/02 05:19:41;;;;;;;7.60;5.60;;;;;;;17.11;77.97;98127.97;4199804;28;21211;-81
2023/06/02 05:21:44;;;;;;;8.57;5.47;;;;;;;17.18;78.55;98126.41;4201014;28;20652;-81
2023/06/02 05:23:47;;;;;;;7.17;4.90;;;;;;;17.26;79.04;98126.53;4199233;28;21054;-83
2023/06/02 05:25:50;;;;;;;9.40;6.00;;;;;;;17.33;79.32;98131.09;4190979;28;20676;-82
2023/06/02 05:27:53;;;;;;;9.07;5.30;;;;;;;17.43;78.43;98133.72;4203484;28;20637;-83
2023/06/02 05:29:57;;;;;;;8.43;5.23;;;;;;;17.50;78.24;98140.91;4179441;28;23002;-81
2023/06/02 05:32:00;;;;;;;7.83;5.03;;;;;;;17.59;78.44;98146.13;4188665;28;20746;-81
2023/06/02 05:34:06;;;;;;;7.50;5.17;;;;;;;17.73;79.14;98136.88;4182444;28;20630;-81
2023/06/02 05:36:10;;;;;;;9.27;5.60;;;;;;;17.85;77.73;98139.16;4204343;28;21201;-81
2023/06/02 05:38:17;;;;;;;7.63;4.70;;;;;;;17.98;77.11;98140.47;4203133;28;20738;-81
2023/06/02 05:40:20;;;;;;;6.13;4.23;;;;;;;18.20;76.24;98147.16;4187501;28;20650;-83
2023/06/02 05:42:25;;;;;;;7.57;5.63;;;;;;;18.45;76.41;98147.25;4207758;28;20656;-83
2023/06/02 05:44:29;;;;;;;7.70;4.77;;;;;;;18.74;74.59;98159.22;4190938;28;21321;-84
2023/06/02 05:46:33;;;;;;;6.87;4.70;;;;;;;18.92;73.13;98152.09;4199917;28;21012;-84
2023/06/02 05:48:36;;;;;;;7.80;5.33;;;;;;;18.98;72.09;98154.94;4183334;28;20630;-87
2023/06/02 05:50:42;;;;;;;8.80;4.93;;;;;;;19.25;74.05;98154.81;4178536;28;20691;-86
2023/06/02 05:52:46;;;;;;;7.47;5.47;;;;;;;19.58;72.23;98161.94;4189715;28;20690;-83
2023/06/02 05:54:50;;;;;;;8.00;5.60;;;;;;;19.88;71.94;98159.63;4189553;28;20635;-81
2023/06/02 05:56:55;;;;;;;7.70;5.53;;;;;;;20.16;71.75;98163.66;4197865;28;21452;-80
2023/06/02 05:58:59;;;;;;;8.07;5.50;;;;;;;20.40;71.90;98165.38;4188110;28;20696;-81
2023/06/02 06:01:03;;;;;;;7.33;5.90;;;;;;;20.61;69.90;98164.91;4201913;28;20657;-80
2023/06/02 06:03:06;;;;;;;7.50;4.87;;;;;;;20.86;69.15;98172.72;4204559;28;20662;-80
2023/06/02 06:05:13;;;;;;;8.43;5.37;;;;;;;21.12;67.59;98184.81;4207185;28;20676;-81
2023/06/02 06:07:19;;;;;;;8.07;5.57;;;;;;;21.32;67.19;98179.00;4204721;28;20622;-81
2023/06/02 06:09:22;;;;;;;7.07;5.40;;;;;;;21.49;67.00;98177.97;4207631;28;21176;-82
2023/06/02 06:11:25;;;;;;;10.10;6.30;;;;;;;21.63;66.20;98176.44;4214577;28;20720;-82
2023/06/02 06:13:29;;;;;;;7.57;5.30;;;;;;;21.74;67.23;98184.91;4186464;28;21685;-82
2023/06/02 06:15:33;;;;;;;8.27;5.50;;;;;;;21.85;66.67;98179.19;4188787;28;20745;-83
2023/06/02 06:17:47;;;;;;;7.40;5.57;;;;;;;22.02;66.45;98183.44;4190272;28;21099;-83
2023/06/02 06:19:50;;;;;;;7.27;5.30;;;;;;;22.16;66.65;98183.53;4204123;28;21227;-83
2023/06/02 06:21:53;;;;;;;6.37;5.53;;;;;;;22.34;65.71;98187.63;4194692;28;20622;-83
2023/06/02 06:24:00;;;;;;;6.60;4.70;;;;;;;22.43;64.99;98197.22;4220292;28;21299;-84
2023/06/02 06:26:04;;;;;;;8.47;5.80;;;;;;;22.54;64.04;98188.00;4188174;28;20805;-85
2023/06/02 06:28:08;;;;;;;7.70;4.67;;;;;;;22.68;64.62;98198.69;4200660;28;20741;-85
2023/06/02 06:30:12;;;;;;;8.13;5.43;;;;;;;22.64;62.95;98192.06;4203463;28;21030;-87
2023/06/02 06:32:15;;;;;;;7.27;5.20;;;;;;;22.62;63.68;98186.09;4192720;28;20631;-92
2023/06/02 06:34:19;;;;;;;7.63;5.30;;;;;;;22.69;64.00;98181.75;4191950;28;21281;-87
2023/06/02 06:36:23;;;;;;;8.17;5.30;;;;;;;22.85;64.15;98194.91;4193639;28;21215;-90
2023/06/02 06:38:26;;;;;;;6.83;5.70;;;;;;;22.97;63.50;98193.50;4203296;28;20643;-88
2023/06/02 06:40:33;;;;;;;6.43;5.30;;;;;;;23.14;64.27;98192.38;4208797;28;20641;-95
2023/06/02 06:42:37;;;;;;;11.47;4.90;;;;;;;23.31;63.83;98189.38;4187599;28;21206;-89
2023/06/02 06:44:55;;;;;;;7.50;5.93;;;;;;;23.41;63.82;98188.13;4187978;28;21188;-87
2023/06/02 06:46:59;;;;;;;6.10;4.40;;;;;;;23.47;63.34;98190.06;4198232;28;20695;-87
2023/06/02 06:49:03;;;;;;;5.90;4.73;;;;;;;23.67;62.44;98191.19;4204173;28;20739;-89
2023/06/02 06:51:06;;;;;;;6.00;5.10;;;;;;;23.78;61.43;98196.06;4210029;28;21231;-92
2023/06/02 06:53:11;;;;;;;6.37;5.27;;;;;;;23.82;61.42;98189.38;4196294;28;20653;-86
2023/06/02 06:55:14;;;;;;;8.43;6.47;;;;;;;23.91;61.42;98193.59;4184794;28;20633;-87
2023/06/02 06:57:19;;;;;;;7.07;5.13;;;;;;;24.07;61.69;98196.03;4186761;28;20706;-87
2023/06/02 06:59:22;;;;;;;6.57;5.50;;;;;;;24.19;62.27;98196.22;4204410;28;20644;-86
2023/06/02 07:01:25;;;;;;;7.43;5.33;;;;;;;24.34;60.83;98197.06;4209939;28;20644;-83
2023/06/02 07:03:29;;;;;;;6.90;5.23;;;;;;;24.41;60.83;98207.78;4176013;28;20654;-87
2023/06/02 07:05:33;;;;;;;12.97;6.60;;;;;;;24.46;61.67;98200.91;4187985;28;20652;-86
2023/06/02 07:07:36;;;;;;;7.00;5.30;;;;;;;24.53;60.33;98206.28;4192766;28;20702;-85
2023/06/02 07:09:41;;;;;;;6.93;5.03;;;;;;;24.67;62.41;98209.75;4199547;28;21206;-89
2023/06/02 07:11:45;;;;;;;6.33;5.00;;;;;;;24.76;60.69;98207.78;4184806;28;20639;-84
2023/06/02 07:13:49;;;;;;;8.97;5.50;;;;;;;24.83;59.23;98208.69;4186344;28;20666;-85
2023/06/02 07:15:56;;;;;;;6.47;5.20;;;;;;;24.88;59.92;98198.25;4187515;28;20623;-83
2023/06/02 07:17:59;;;;;;;8.70;5.63;;;;;;;24.95;60.62;98199.16;4195586;28;20631;-85
2023/06/02 07:20:02;;;;;;;8.10;5.60;;;;;;;25.02;59.73;98203.56;4201588;28;20633;-86
2023/06/02 07:22:06;;;;;;;7.30;4.80;;;;;;;25.14;60.17;98200.19;4194161;28;20621;-84
2023/06/02 07:24:09;;;;;;;6.77;5.03;;;;;;;25.15;59.08;98195.66;4194023;28;20686;-85
2023/06/02 07:26:13;;;;;;;6.77;5.20;;;;;;;25.12;57.97;98200.56;4202436;28;20626;-85
2023/06/02 07:28:16;;;;;;;8.33;4.97;;;;;;;25.06;59.64;98204.00;4186036;28;20670;-85
2023/06/02 07:30:35;;;;;;;6.33;4.80;;;;;;;25.16;58.86;98202.66;4192717;28;20729;-82
2023/06/02 07:32:38;;;;;;;6.10;4.80;;;;;;;25.26;59.02;98201.31;4203087;28;20658;-82
2023/06/02 07:34:41;;;;;;;7.40;5.80;;;;;;;25.37;60.43;98202.63;4199044;28;21039;-82
2023/06/02 07:36:47;;;;;;;7.63;5.43;;;;;;;25.52;58.49;98201.50;4184940;28;20642;-82
2023/06/02 07:38:50;;;;;;;8.10;4.70;;;;;;;25.60;59.54;98202.19;4187344;28;20643;-82
2023/06/02 07:40:54;;;;;;;6.57;5.00;;;;;;;25.73;59.51;98191.59;4195664;28;20654;-82
2023/06/02 07:42:57;;;;;;;5.93;5.33;;;;;;;25.68;56.92;98190.56;4191779;28;20700;-82
2023/06/02 07:45:06;;;;;;;7.30;5.43;;;;;;;25.64;58.48;98190.09;4199525;28;20656;-82
2023/06/02 07:47:10;;;;;;;5.40;4.63;;;;;;;25.72;58.49;98189.13;4196973;28;20638;-82
2023/06/02 07:49:14;;;;;;;6.63;5.00;;;;;;;25.74;58.31;98193.25;4195429;28;20667;-83
2023/06/02 07:51:17;;;;;;;6.57;5.53;;;;;;;25.80;57.43;98196.97;4186310;28;20632;-83
2023/06/02 07:53:20;;;;;;;6.10;5.00;;;;;;;25.83;57.99;98188.56;4196327;28;20667;-83
2023/06/02 07:55:24;;;;;;;6.70;5.10;;;;;;;25.96;59.09;98194.00;4197848;28;20646;-83
2023/06/02 07:57:28;;;;;;;9.40;5.70;;;;;;;26.07;57.94;98185.41;4201193;28;20635;-83
2023/06/02 07:59:32;;;;;;;8.17;4.77;;;;;;;26.12;57.75;98184.63;4183519;28;20644;-83
2023/06/02 08:01:35;;;;;;;6.53;4.73;;;;;;;26.14;56.54;98189.78;4198860;28;20708;-83
2023/06/02 08:03:40;;;;;;;6.00;4.97;;;;;;;26.04;57.38;98185.81;4194443;28;20632;-83
2023/06/02 08:05:44;;;;;;;6.77;5.07;;;;;;;25.94;55.49;98183.50;4194956;28;20711;-83
2023/06/02 08:07:47;;;;;;;8.20;5.90;;;;;;;25.62;56.46;98180.63;4198333;28;20631;-83
2023/06/02 08:09:52;;;;;;;5.97;5.00;;;;;;;25.56;57.95;98175.22;4200887;28;20723;-83
2023/06/02 08:11:55;;;;;;;7.03;5.60;;;;;;;25.59;56.73;98176.47;4200391;28;21044;-83
2023/06/02 08:13:58;;;;;;;6.37;5.50;;;;;;;25.38;57.41;98172.19;4193893;28;20754;-83
2023/06/02 08:16:01;;;;;;;6.60;5.30;;;;;;;25.50;58.50;98174.16;4203674;28;20714;-83
2023/06/02 08:18:24;;;;;;;5.47;4.80;;;;;;;25.61;59.10;98173.63;4197936;28;20634;-82
2023/06/02 08:20:29;;;;;;;6.33;5.40;;;;;;;25.72;57.60;98179.25;4183339;28;21071;-82
2023/06/02 08:22:33;;;;;;;6.47;4.30;;;;;;;25.90;57.62;98173.41;4194965;28;21067;-82
2023/06/02 08:24:38;;;;;;;6.87;4.53;;;;;;;25.80;56.81;98168.41;4203003;28;20700;-83
2023/06/02 08:26:41;;;;;;;7.93;5.97;;;;;;;25.66;55.87;98164.03;4202801;28;20727;-83
2023/06/02 08:28:48;;;;;;;5.93;4.97;;;;;;;25.45;57.57;98160.53;4184113;28;20683;-83
2023/06/02 08:30:52;;;;;;;6.27;5.10;;;;;;;25.45;57.05;98157.06;4201288;28;20678;-83
2023/06/02 08:32:56;;;;;;;6.00;4.80;;;;;;;25.37;57.35;98159.88;4200805;28;20741;-83
2023/06/02 08:35:01;;;;;;;6.03;5.10;;;;;;;25.41;57.56;98153.09;4181956;28;20623;-83
2023/06/02 08:37:16;;;;;;;5.90;4.67;;;;;;;25.42;57.37;98162.78;4202091;28;20636;-83
2023/06/02 08:39:19;;;;;;;6.10;4.50;;;;;;;25.43;58.92;98159.09;4186525;28;20706;-83
2023/06/02 08:41:23;;;;;;;6.77;5.00;;;;;;;25.66;57.64;98165.84;4195885;28;20731;-83
2023/06/02 08:43:26;;;;;;;5.40;4.63;;;;;;;25.90;59.46;98171.53;4183643;28;21075;-83
2023/06/02 08:45:29;;;;;;;5.53;4.60;;;;;;;25.93;57.05;98173.00;4185424;28;20633;-84
2023/06/02 08:47:34;;;;;;;6.73;5.40;;;;;;;25.17;57.36;98156.25;4186393;28;20658;-82
2023/06/02 08:49:42;;;;;;;5.77;5.17;;;;;;;25.17;57.64;98159.72;4195551;28;20630;-82
2023/06/02 08:51:48;;;;;;;6.70;5.10;;;;;;;24.82;57.94;98157.16;4194287;28;20626;-81
2023/06/02 08:53:54;;;;;;;4.80;4.30;;;;;;;25.00;59.02;98159.38;4193646;28;21258;-81
2023/06/02 08:55:57;;;;;;;5.10;4.60;;;;;;;25.28;58.58;98163.72;4179575;28;20644;-82
2023/06/02 08:58:00;;;;;;;5.83;5.23;;;;;;;25.29;57.81;98163.53;4191186;28;21214;-82
2023/06/02 09:00:04;;;;;;;6.00;5.10;;;;;;;25.30;58.03;98167.84;4184920;28;20693;-82
2023/06/02 09:02:08;;;;;;;6.07;4.50;;;;;;;24.90;57.40;98151.66;4201213;28;20635;-82
2023/06/02 09:04:11;;;;;;;5.77;4.60;;;;;;;24.96;58.10;98160.72;4185445;28;20643;-81
2023/06/02 09:06:21;;;;;;;6.90;5.07;;;;;;;25.01;57.96;98167.19;4191872;28;20745;-81
2023/06/02 09:08:25;;;;;;;6.50;5.40;;;;;;;25.11;58.29;98177.53;4195073;28;20623;-81
2023/06/02 09:10:30;;;;;;;7.10;5.07;;;;;;;25.25;58.54;98172.94;4198554;28;21275;-81
2023/06/02 09:12:47;;;;;;;5.80;4.60;;;;;;;25.03;59.18;98161.66;4190781;28;20658;-81
2023/06/02 09:15:09;;;;;;;6.03;4.63;;;;;;;25.10;60.96;98167.88;4195508;28;20636;-81
2023/06/02 09:17:26;;;;;;;7.67;5.07;;;;;;;24.99;57.42;98158.56;4195486;28;20636;-81
2023/06/02 09:19:49;;;;;;;6.17;4.57;;;;;;;24.73;57.99;98160.94;4196293;28;20994;-81
2023/06/02 09:21:53;;;;;;;5.70;4.40;;;;;;;24.44;58.03;98154.06;4205268;28;20713;-80
2023/06/02 09:23:57;;;;;;;8.20;5.33;;;;;;;23.95;58.99;98142.41;4199761;28;21205;-81
2023/06/02 09:26:22;;;;;;;6.70;4.63;;;;;;;24.03;60.13;98155.59;4206533;28;20671;-81
2023/06/02 09:28:26;;;;;;;6.00;4.70;;;;;;;24.28;59.45;98155.09;4206963;28;20642;-81
2023/06/02 09:30:29;;;;;;;6.83;5.23;;;;;;;24.63;61.13;98158.78;4189378;28;20656;-81
2023/06/02 09:32:36;;;;;;;6.13;4.77;;;;;;;24.60;58.97;98156.47;4195623;28;20743;-80
2023/06/02 09:34:40;;;;;;;5.60;4.90;;;;;;;24.73;59.55;98158.28;4198703;28;20655;-81
2023/06/02 09:36:47;;;;;;;6.03;4.90;;;;;;;25.00;61.46;98162.03;4196464;28;21222;-81
2023/06/02 09:38:50;;;;;;;6.57;4.87;;;;;;;25.22;58.37;98162.63;4197265;28;20639;-81
2023/06/02 09:40:53;;;;;;;5.90;5.20;;;;;;;25.16;57.39;98168.75;4195275;28;20663;-81
2023/06/02 09:42:58;;;;;;;5.53;4.90;;;;;;;25.07;58.46;98152.25;4201215;28;20650;-81
2023/06/02 09:45:05;;;;;;;8.90;5.27;;;;;;;25.01;57.91;98143.16;4205013;28;20626;-81
2023/06/02 09:47:24;;;;;;;7.27;5.30;;;;;;;25.08;57.43;98149.38;4199548;28;20979;-81